Terminal Aerodrome Forecast
Issued by NWS

Home | Current Version | Previous Version | Graphics & Text | Print | Product List | Glossary On
Versions: 1 2 3 4 5 6 7 8 9 10 11 12 13 14 15 16
795
FTUS43 KGRB 250814 AAA
TAFAUW
TAF AMD
KAUW 250814Z 2508/2606 04005KT P6SM SCT025 BKN070
     FM251700 10004KT P6SM BKN050
     FM252200 14004KT P6SM SCT100=

USA.gov is the U.S. government's official web portal to all federal, state and local government web resources and services.